sensor_id;sensor_type;location;lat;lon;timestamp;temperature;humidity
702;DHT22;334;48.808;9.222;2023-01-01T00:00:42;15.30;1.00
702;DHT22;334;48.808;9.222;2023-01-01T00:01:44;15.30;1.00
702;DHT22;334;48.808;9.222;2023-01-01T00:02:46;15.30;1.00
702;DHT22;334;48.808;9.222;2023-01-01T00:03:49;15.30;1.00
702;DHT22;334;48.808;9.222;2023-01-01T00:04:51;15.30;1.00
702;DHT22;334;48.808;9.222;2023-01-01T00:05:53;15.30;1.00
702;DHT22;334;48.808;9.222;2023-01-01T00:06:55;15.20;1.00
702;DHT22;334;48.808;9.222;2023-01-01T00:07:57;15.20;1.00
702;DHT22;334;48.808;9.222;2023-01-01T00:09:05;15.20;1.00
702;DHT22;334;48.808;9.222;2023-01-01T00:10:26;15.20;1.00
702;DHT22;334;48.808;9.222;2023-01-01T00:11:31;15.30;1.00
702;DHT22;334;48.808;9.222;2023-01-01T00:12:33;15.20;1.00
702;DHT22;334;48.808;9.222;2023-01-01T00:13:36;15.30;1.00
702;DHT22;334;48.808;9.222;2023-01-01T00:14:38;15.30;1.00
702;DHT22;334;48.808;9.222;2023-01-01T00:15:40;15.30;1.00
702;DHT22;334;48.808;9.222;2023-01-01T00:16:42;15.30;1.00
702;DHT22;334;48.808;9.222;2023-01-01T00:17:43;15.30;1.00
702;DHT22;334;48.808;9.222;2023-01-01T00:18:45;15.30;1.00
702;DHT22;334;48.808;9.222;2023-01-01T00:19:47;15.30;1.00
702;DHT22;334;48.808;9.222;2023-01-01T00:20:48;15.20;1.00
702;DHT22;334;48.808;9.222;2023-01-01T00:21:50;15.30;1.00
702;DHT22;334;48.808;9.222;2023-01-01T00:22:52;15.30;1.00
702;DHT22;334;48.808;9.222;2023-01-01T00:23:56;15.30;1.00
702;DHT22;334;48.808;9.222;2023-01-01T00:24:58;15.30;1.00
702;DHT22;334;48.808;9.222;2023-01-01T00:26:00;15.20;1.00
702;DHT22;334;48.808;9.222;2023-01-01T00:27:03;15.20;1.00
702;DHT22;334;48.808;9.222;2023-01-01T00:28:05;15.20;1.00
702;DHT22;334;48.808;9.222;2023-01-01T00:29:07;15.20;1.00
702;DHT22;334;48.808;9.222;2023-01-01T00:30:10;15.20;1.00
702;DHT22;334;48.808;9.222;2023-01-01T00:31:19;15.20;1.00
702;DHT22;334;48.808;9.222;2023-01-01T00:32:22;15.20;1.00
702;DHT22;334;48.808;9.222;2023-01-01T00:33:23;15.20;1.00
702;DHT22;334;48.808;9.222;2023-01-01T00:34:25;15.20;1.00
702;DHT22;334;48.808;9.222;2023-01-01T00:35:27;15.20;1.00
702;DHT22;334;48.808;9.222;2023-01-01T00:36:29;15.20;1.00
702;DHT22;334;48.808;9.222;2023-01-01T00:37:31;15.20;1.00
702;DHT22;334;48.808;9.222;2023-01-01T00:38:33;15.20;1.00
702;DHT22;334;48.808;9.222;2023-01-01T00:39:35;15.20;1.00
702;DHT22;334;48.808;9.222;2023-01-01T00:40:37;15.20;1.00
702;DHT22;334;48.808;9.222;2023-01-01T00:41:39;15.20;1.00
702;DHT22;334;48.808;9.222;2023-01-01T00:42:40;15.20;1.00
702;DHT22;334;48.808;9.222;2023-01-01T00:43:43;15.20;1.00
702;DHT22;334;48.808;9.222;2023-01-01T00:44:44;15.20;1.00
702;DHT22;334;48.808;9.222;2023-01-01T00:45:47;15.20;1.00
702;DHT22;334;48.808;9.222;2023-01-01T00:46:53;15.20;1.00
702;DHT22;334;48.808;9.222;2023-01-01T00:47:55;15.20;1.00
702;DHT22;334;48.808;9.222;2023-01-01T00:48:57;15.20;1.00
702;DHT22;334;48.808;9.222;2023-01-01T00:49:58;15.20;1.00
702;DHT22;334;48.808;9.222;2023-01-01T00:51:01;15.20;1.00
702;DHT22;334;48.808;9.222;2023-01-01T00:52:04;15.20;1.00
702;DHT22;334;48.808;9.222;2023-01-01T00:53:06;15.20;1.00
702;DHT22;334;48.808;9.222;2023-01-01T00:54:07;15.20;1.00
702;DHT22;334;48.808;9.222;2023-01-01T00:55:10;15.20;1.00
702;DHT22;334;48.808;9.222;2023-01-01T00:56:12;15.20;1.00
702;DHT22;334;48.808;9.222;2023-01-01T00:57:14;15.30;1.00
702;DHT22;334;48.808;9.222;2023-01-01T00:58:17;15.30;1.00
702;DHT22;334;48.808;9.222;2023-01-01T00:59:19;15.40;1.00
702;DHT22;334;48.808;9.222;2023-01-01T01:00:28;15.30;1.00
702;DHT22;334;48.808;9.222;2023-01-01T01:01:30;15.30;1.00
702;DHT22;334;48.808;9.222;2023-01-01T01:02:34;15.30;1.00
702;DHT22;334;48.808;9.222;2023-01-01T01:03:39;15.20;1.00
702;DHT22;334;48.808;9.222;2023-01-01T01:04:40;15.20;1.00
702;DHT22;334;48.808;9.222;2023-01-01T01:05:42;15.20;1.00
702;DHT22;334;48.808;9.222;2023-01-01T01:06:44;15.20;1.00
702;DHT22;334;48.808;9.222;2023-01-01T01:07:46;15.20;1.00
702;DHT22;334;48.808;9.222;2023-01-01T01:08:47;15.20;1.00
702;DHT22;334;48.808;9.222;2023-01-01T01:09:49;15.20;1.00
702;DHT22;334;48.808;9.222;2023-01-01T01:10:51;15.20;1.00
702;DHT22;334;48.808;9.222;2023-01-01T01:11:53;15.20;1.00
702;DHT22;334;48.808;9.222;2023-01-01T01:13:15;15.20;1.00
702;DHT22;334;48.808;9.222;2023-01-01T01:14:17;15.20;1.00
702;DHT22;334;48.808;9.222;2023-01-01T01:15:19;15.20;1.00
702;DHT22;334;48.808;9.222;2023-01-01T01:16:23;15.20;1.00
702;DHT22;334;48.808;9.222;2023-01-01T01:17:26;15.20;1.00
702;DHT22;334;48.808;9.222;2023-01-01T01:18:30;15.20;1.00
702;DHT22;334;48.808;9.222;2023-01-01T01:19:32;15.20;1.00
702;DHT22;334;48.808;9.222;2023-01-01T01:20:33;15.20;1.00
702;DHT22;334;48.808;9.222;2023-01-01T01:21:35;15.20;1.00
702;DHT22;334;48.808;9.222;2023-01-01T01:22:38;15.30;1.00
702;DHT22;334;48.808;9.222;2023-01-01T01:23:40;15.20;1.00
702;DHT22;334;48.808;9.222;2023-01-01T01:24:42;15.20;1.00
702;DHT22;334;48.808;9.222;2023-01-01T01:25:44;15.20;1.00
702;DHT22;334;48.808;9.222;2023-01-01T01:26:46;15.20;1.00
702;DHT22;334;48.808;9.222;2023-01-01T01:27:47;15.10;1.00
702;DHT22;334;48.808;9.222;2023-01-01T01:28:50;15.20;1.00
702;DHT22;334;48.808;9.222;2023-01-01T01:29:53;15.10;1.00
702;DHT22;334;48.808;9.222;2023-01-01T01:30:58;15.10;1.00
702;DHT22;334;48.808;9.222;2023-01-01T01:32:00;15.10;1.00
702;DHT22;334;48.808;9.222;2023-01-01T01:33:02;15.10;1.00
702;DHT22;334;48.808;9.222;2023-01-01T01:34:04;15.10;1.00
702;DHT22;334;48.808;9.222;2023-01-01T01:35:06;15.10;1.00
702;DHT22;334;48.808;9.222;2023-01-01T01:36:09;15.10;1.00
702;DHT22;334;48.808;9.222;2023-01-01T01:37:11;15.30;1.00
702;DHT22;334;48.808;9.222;2023-01-01T01:38:13;15.10;1.00
702;DHT22;334;48.808;9.222;2023-01-01T01:39:15;15.10;1.00
702;DHT22;334;48.808;9.222;2023-01-01T01:40:17;15.10;1.00
702;DHT22;334;48.808;9.222;2023-01-01T01:41:22;15.10;1.00
702;DHT22;334;48.808;9.222;2023-01-01T01:42:29;15.10;1.00
702;DHT22;334;48.808;9.222;2023-01-01T01:45:47;15.10;1.00
702;DHT22;334;48.808;9.222;2023-01-01T01:46:50;15.10;1.00
702;DHT22;334;48.808;9.222;2023-01-01T01:47:57;15.10;1.00
702;DHT22;334;48.808;9.222;2023-01-01T01:49:09;15.00;1.00
702;DHT22;334;48.808;9.222;2023-01-01T01:51:30;15.00;1.00
702;DHT22;334;48.808;9.222;2023-01-01T01:52:36;14.90;1.00
702;DHT22;334;48.808;9.222;2023-01-01T01:53:42;14.90;1.00
702;DHT22;334;48.808;9.222;2023-01-01T01:54:46;14.90;1.00
702;DHT22;334;48.808;9.222;2023-01-01T01:55:51;14.90;1.00
702;DHT22;334;48.808;9.222;2023-01-01T01:57:04;14.80;1.00
702;DHT22;334;48.808;9.222;2023-01-01T01:58:09;14.80;1.00
702;DHT22;334;48.808;9.222;2023-01-01T01:59:12;14.80;1.00
702;DHT22;334;48.808;9.222;2023-01-01T02:00:14;14.70;1.00
702;DHT22;334;48.808;9.222;2023-01-01T02:01:16;14.70;1.00
702;DHT22;334;48.808;9.222;2023-01-01T02:02:30;14.70;1.00
702;DHT22;334;48.808;9.222;2023-01-01T02:03:40;14.60;1.00
702;DHT22;334;48.808;9.222;2023-01-01T02:04:44;14.60;1.00
702;DHT22;334;48.808;9.222;2023-01-01T02:05:46;14.60;1.00
702;DHT22;334;48.808;9.222;2023-01-01T02:06:49;14.80;1.00
702;DHT22;334;48.808;9.222;2023-01-01T02:07:52;14.50;1.00
702;DHT22;334;48.808;9.222;2023-01-01T02:08:56;14.50;1.00
702;DHT22;334;48.808;9.222;2023-01-01T02:10:00;14.50;1.00
702;DHT22;334;48.808;9.222;2023-01-01T02:11:03;14.50;1.00
702;DHT22;334;48.808;9.222;2023-01-01T02:12:05;14.40;1.00
702;DHT22;334;48.808;9.222;2023-01-01T02:13:07;14.40;1.00
702;DHT22;334;48.808;9.222;2023-01-01T02:14:09;14.50;1.00
702;DHT22;334;48.808;9.222;2023-01-01T02:15:10;14.50;1.00
702;DHT22;334;48.808;9.222;2023-01-01T02:16:22;14.40;1.00
702;DHT22;334;48.808;9.222;2023-01-01T02:17:33;14.40;1.00
702;DHT22;334;48.808;9.222;2023-01-01T02:18:57;14.40;1.00
702;DHT22;334;48.808;9.222;2023-01-01T02:21:05;14.40;1.00
702;DHT22;334;48.808;9.222;2023-01-01T02:25:26;14.30;1.00
702;DHT22;334;48.808;9.222;2023-01-01T02:26:36;14.30;1.00
702;DHT22;334;48.808;9.222;2023-01-01T02:28:05;14.30;1.00
702;DHT22;334;48.808;9.222;2023-01-01T02:30:28;14.20;1.00
702;DHT22;334;48.808;9.222;2023-01-01T02:31:41;14.20;1.00
702;DHT22;334;48.808;9.222;2023-01-01T02:32:53;14.30;1.00
702;DHT22;334;48.808;9.222;2023-01-01T02:34:01;14.30;1.00
702;DHT22;334;48.808;9.222;2023-01-01T02:36:27;14.30;1.00
702;DHT22;334;48.808;9.222;2023-01-01T02:37:30;14.40;1.00
702;DHT22;334;48.808;9.222;2023-01-01T02:38:36;14.40;1.00
702;DHT22;334;48.808;9.222;2023-01-01T02:39:45;14.40;1.00
702;DHT22;334;48.808;9.222;2023-01-01T02:40:52;14.40;1.00
702;DHT22;334;48.808;9.222;2023-01-01T02:41:57;14.40;1.00
702;DHT22;334;48.808;9.222;2023-01-01T02:43:00;14.40;1.00
702;DHT22;334;48.808;9.222;2023-01-01T02:44:03;14.40;1.00
702;DHT22;334;48.808;9.222;2023-01-01T02:45:05;14.40;1.00
702;DHT22;334;48.808;9.222;2023-01-01T02:46:09;14.40;1.00
702;DHT22;334;48.808;9.222;2023-01-01T02:47:15;14.40;1.00
702;DHT22;334;48.808;9.222;2023-01-01T02:48:44;14.40;1.00
702;DHT22;334;48.808;9.222;2023-01-01T02:49:59;14.30;1.00
702;DHT22;334;48.808;9.222;2023-01-01T02:51:12;14.30;1.00
702;DHT22;334;48.808;9.222;2023-01-01T02:52:26;14.20;1.00
702;DHT22;334;48.808;9.222;2023-01-01T02:53:32;14.20;1.00
702;DHT22;334;48.808;9.222;2023-01-01T02:54:56;14.10;1.00
702;DHT22;334;48.808;9.222;2023-01-01T02:57:30;14.10;1.00
702;DHT22;334;48.808;9.222;2023-01-01T02:59:00;14.10;1.00
702;DHT22;334;48.808;9.222;2023-01-01T03:00:25;14.10;1.00
702;DHT22;334;48.808;9.222;2023-01-01T03:03:14;13.90;1.00
702;DHT22;334;48.808;9.222;2023-01-01T03:04:22;13.90;1.00
702;DHT22;334;48.808;9.222;2023-01-01T03:07:37;13.80;1.00
702;DHT22;334;48.808;9.222;2023-01-01T03:08:16;13.80;1.00
702;DHT22;334;48.808;9.222;2023-01-01T03:09:48;13.70;1.00
702;DHT22;334;48.808;9.222;2023-01-01T03:11:06;13.70;1.00
702;DHT22;334;48.808;9.222;2023-01-01T03:12:26;13.70;1.00
702;DHT22;334;48.808;9.222;2023-01-01T03:14:59;13.80;1.00
702;DHT22;334;48.808;9.222;2023-01-01T03:17:51;13.80;1.00
702;DHT22;334;48.808;9.222;2023-01-01T03:19:21;13.80;1.00
702;DHT22;334;48.808;9.222;2023-01-01T03:20:35;13.90;1.00
702;DHT22;334;48.808;9.222;2023-01-01T03:22:03;13.90;1.00
702;DHT22;334;48.808;9.222;2023-01-01T03:23:08;13.90;1.00
702;DHT22;334;48.808;9.222;2023-01-01T03:24:22;13.90;1.00
702;DHT22;334;48.808;9.222;2023-01-01T03:25:28;13.80;1.00
702;DHT22;334;48.808;9.222;2023-01-01T03:26:33;13.80;1.00
702;DHT22;334;48.808;9.222;2023-01-01T03:27:42;13.80;1.00
702;DHT22;334;48.808;9.222;2023-01-01T03:28:55;13.80;1.00
702;DHT22;334;48.808;9.222;2023-01-01T03:30:01;13.70;1.00
702;DHT22;334;48.808;9.222;2023-01-01T03:31:04;13.70;1.00
702;DHT22;334;48.808;9.222;2023-01-01T03:32:10;13.70;1.00
702;DHT22;334;48.808;9.222;2023-01-01T03:33:19;13.70;1.00
702;DHT22;334;48.808;9.222;2023-01-01T03:34:32;13.70;1.00
702;DHT22;334;48.808;9.222;2023-01-01T03:36:51;13.70;1.00
702;DHT22;334;48.808;9.222;2023-01-01T03:37:57;13.70;1.00
702;DHT22;334;48.808;9.222;2023-01-01T03:39:05;13.70;1.00
702;DHT22;334;48.808;9.222;2023-01-01T03:40:09;13.60;1.00
702;DHT22;334;48.808;9.222;2023-01-01T03:41:23;13.60;1.00
702;DHT22;334;48.808;9.222;2023-01-01T03:42:33;13.60;1.00
702;DHT22;334;48.808;9.222;2023-01-01T03:43:50;13.60;1.00
702;DHT22;334;48.808;9.222;2023-01-01T03:45:06;13.60;1.00
702;DHT22;334;48.808;9.222;2023-01-01T03:46:12;13.50;1.00
702;DHT22;334;48.808;9.222;2023-01-01T03:47:16;13.50;1.00
702;DHT22;334;48.808;9.222;2023-01-01T03:48:18;13.50;1.00
702;DHT22;334;48.808;9.222;2023-01-01T03:49:20;13.50;1.00
702;DHT22;334;48.808;9.222;2023-01-01T03:50:34;13.50;1.00
702;DHT22;334;48.808;9.222;2023-01-01T03:53:06;13.50;1.00
702;DHT22;334;48.808;9.222;2023-01-01T03:55:31;13.50;1.00
702;DHT22;334;48.808;9.222;2023-01-01T03:56:48;13.50;1.00
702;DHT22;334;48.808;9.222;2023-01-01T03:58:08;13.50;1.00
702;DHT22;334;48.808;9.222;2023-01-01T03:59:23;13.50;1.00
702;DHT22;334;48.808;9.222;2023-01-01T04:00:39;13.50;1.00
702;DHT22;334;48.808;9.222;2023-01-01T04:01:48;13.50;1.00
702;DHT22;334;48.808;9.222;2023-01-01T04:03:01;13.40;1.00
702;DHT22;334;48.808;9.222;2023-01-01T04:04:05;13.40;1.00
702;DHT22;334;48.808;9.222;2023-01-01T04:05:08;13.40;1.00
702;DHT22;334;48.808;9.222;2023-01-01T04:06:11;13.30;1.00
702;DHT22;334;48.808;9.222;2023-01-01T04:07:13;13.50;1.00
702;DHT22;334;48.808;9.222;2023-01-01T04:08:16;13.30;1.00
702;DHT22;334;48.808;9.222;2023-01-01T04:09:22;13.30;1.00
702;DHT22;334;48.808;9.222;2023-01-01T04:10:24;13.30;1.00
702;DHT22;334;48.808;9.222;2023-01-01T04:11:30;13.20;1.00
702;DHT22;334;48.808;9.222;2023-01-01T04:12:55;13.30;1.00
702;DHT22;334;48.808;9.222;2023-01-01T04:13:57;13.30;1.00
702;DHT22;334;48.808;9.222;2023-01-01T04:14:59;13.30;1.00
702;DHT22;334;48.808;9.222;2023-01-01T04:16:02;13.30;1.00
702;DHT22;334;48.808;9.222;2023-01-01T04:17:05;13.30;1.00
702;DHT22;334;48.808;9.222;2023-01-01T04:18:07;13.30;1.00
702;DHT22;334;48.808;9.222;2023-01-01T04:19:09;13.30;1.00
702;DHT22;334;48.808;9.222;2023-01-01T04:20:12;13.30;1.00
702;DHT22;334;48.808;9.222;2023-01-01T04:21:14;13.40;1.00
702;DHT22;334;48.808;9.222;2023-01-01T04:22:15;13.40;1.00
702;DHT22;334;48.808;9.222;2023-01-01T04:23:18;13.40;1.00
702;DHT22;334;48.808;9.222;2023-01-01T04:24:20;13.40;1.00
702;DHT22;334;48.808;9.222;2023-01-01T04:25:22;13.40;1.00
702;DHT22;334;48.808;9.222;2023-01-01T04:26:24;13.40;1.00
702;DHT22;334;48.808;9.222;2023-01-01T04:27:26;13.50;1.00
702;DHT22;334;48.808;9.222;2023-01-01T04:28:28;13.50;1.00
702;DHT22;334;48.808;9.222;2023-01-01T04:29:30;13.50;1.00
702;DHT22;334;48.808;9.222;2023-01-01T04:30:31;13.50;1.00
702;DHT22;334;48.808;9.222;2023-01-01T04:31:34;13.50;1.00
702;DHT22;334;48.808;9.222;2023-01-01T04:32:36;13.50;1.00
702;DHT22;334;48.808;9.222;2023-01-01T04:33:38;13.40;1.00
702;DHT22;334;48.808;9.222;2023-01-01T04:34:39;13.60;1.00
702;DHT22;334;48.808;9.222;2023-01-01T04:35:41;13.50;1.00
702;DHT22;334;48.808;9.222;2023-01-01T04:36:43;13.50;1.00
702;DHT22;334;48.808;9.222;2023-01-01T04:37:45;13.50;1.00
702;DHT22;334;48.808;9.222;2023-01-01T04:38:47;13.40;1.00
702;DHT22;334;48.808;9.222;2023-01-01T04:39:49;13.40;1.00
702;DHT22;334;48.808;9.222;2023-01-01T04:41:00;13.40;1.00
702;DHT22;334;48.808;9.222;2023-01-01T04:42:02;13.40;1.00
702;DHT22;334;48.808;9.222;2023-01-01T04:43:04;13.40;1.00
702;DHT22;334;48.808;9.222;2023-01-01T04:44:06;13.30;1.00
702;DHT22;334;48.808;9.222;2023-01-01T04:45:08;13.30;1.00
702;DHT22;334;48.808;9.222;2023-01-01T04:46:12;13.30;1.00
702;DHT22;334;48.808;9.222;2023-01-01T04:47:14;13.30;1.00
702;DHT22;334;48.808;9.222;2023-01-01T04:48:16;13.30;1.00
702;DHT22;334;48.808;9.222;2023-01-01T04:49:18;13.40;1.00
702;DHT22;334;48.808;9.222;2023-01-01T04:50:20;13.30;1.00
702;DHT22;334;48.808;9.222;2023-01-01T04:51:22;13.20;1.00
702;DHT22;334;48.808;9.222;2023-01-01T04:52:23;13.20;1.00
702;DHT22;334;48.808;9.222;2023-01-01T04:53:28;13.20;1.00
702;DHT22;334;48.808;9.222;2023-01-01T04:54:30;13.10;1.00
702;DHT22;334;48.808;9.222;2023-01-01T04:55:33;13.10;1.00
702;DHT22;334;48.808;9.222;2023-01-01T04:56:35;13.10;1.00
702;DHT22;334;48.808;9.222;2023-01-01T04:57:37;13.10;1.00
702;DHT22;334;48.808;9.222;2023-01-01T04:58:40;13.10;1.00
702;DHT22;334;48.808;9.222;2023-01-01T04:59:42;13.10;1.00
702;DHT22;334;48.808;9.222;2023-01-01T05:00:48;13.10;1.00
702;DHT22;334;48.808;9.222;2023-01-01T05:01:51;13.10;1.00
702;DHT22;334;48.808;9.222;2023-01-01T05:02:53;13.10;1.00
702;DHT22;334;48.808;9.222;2023-01-01T05:03:55;13.00;1.00
702;DHT22;334;48.808;9.222;2023-01-01T05:04:57;13.10;1.00
702;DHT22;334;48.808;9.222;2023-01-01T05:07:06;13.00;1.00
702;DHT22;334;48.808;9.222;2023-01-01T05:08:08;13.00;1.00
702;DHT22;334;48.808;9.222;2023-01-01T05:09:10;13.00;1.00
702;DHT22;334;48.808;9.222;2023-01-01T05:10:12;13.00;1.00
702;DHT22;334;48.808;9.222;2023-01-01T05:11:16;13.10;1.00
702;DHT22;334;48.808;9.222;2023-01-01T05:12:19;13.10;1.00
702;DHT22;334;48.808;9.222;2023-01-01T05:13:21;13.10;1.00
702;DHT22;334;48.808;9.222;2023-01-01T05:14:23;13.20;1.00
702;DHT22;334;48.808;9.222;2023-01-01T05:15:24;13.20;1.00
702;DHT22;334;48.808;9.222;2023-01-01T05:16:29;13.30;1.00
702;DHT22;334;48.808;9.222;2023-01-01T05:17:31;13.30;1.00
702;DHT22;334;48.808;9.222;2023-01-01T05:18:34;13.40;1.00
702;DHT22;334;48.808;9.222;2023-01-01T05:19:36;13.40;1.00
702;DHT22;334;48.808;9.222;2023-01-01T05:20:38;13.50;1.00
702;DHT22;334;48.808;9.222;2023-01-01T05:21:39;13.40;1.00
702;DHT22;334;48.808;9.222;2023-01-01T05:22:41;13.50;1.00
702;DHT22;334;48.808;9.222;2023-01-01T05:23:43;13.50;1.00
702;DHT22;334;48.808;9.222;2023-01-01T05:24:45;13.50;1.00
702;DHT22;334;48.808;9.222;2023-01-01T05:25:47;13.60;1.00
702;DHT22;334;48.808;9.222;2023-01-01T05:26:49;13.60;1.00
702;DHT22;334;48.808;9.222;2023-01-01T05:27:50;13.60;1.00
702;DHT22;334;48.808;9.222;2023-01-01T05:28:52;13.70;1.00
702;DHT22;334;48.808;9.222;2023-01-01T05:29:54;13.70;1.00
702;DHT22;334;48.808;9.222;2023-01-01T05:30:56;13.80;1.00
702;DHT22;334;48.808;9.222;2023-01-01T05:31:58;13.80;1.00
702;DHT22;334;48.808;9.222;2023-01-01T05:33:00;13.80;1.00
702;DHT22;334;48.808;9.222;2023-01-01T05:34:03;13.90;1.00
702;DHT22;334;48.808;9.222;2023-01-01T05:35:04;13.90;1.00
702;DHT22;334;48.808;9.222;2023-01-01T05:36:07;13.90;1.00
702;DHT22;334;48.808;9.222;2023-01-01T05:37:10;13.90;1.00
702;DHT22;334;48.808;9.222;2023-01-01T05:38:12;14.00;1.00
702;DHT22;334;48.808;9.222;2023-01-01T05:39:13;13.80;1.00
702;DHT22;334;48.808;9.222;2023-01-01T05:40:15;13.80;1.00
702;DHT22;334;48.808;9.222;2023-01-01T05:41:18;13.80;1.00
702;DHT22;334;48.808;9.222;2023-01-01T05:42:21;13.80;1.00
702;DHT22;334;48.808;9.222;2023-01-01T05:43:22;13.80;1.00
702;DHT22;334;48.808;9.222;2023-01-01T05:44:24;13.80;1.00
702;DHT22;334;48.808;9.222;2023-01-01T05:45:26;13.70;1.00
702;DHT22;334;48.808;9.222;2023-01-01T05:46:28;13.70;1.00
702;DHT22;334;48.808;9.222;2023-01-01T05:47:29;13.70;1.00
702;DHT22;334;48.808;9.222;2023-01-01T05:48:32;13.60;1.00
702;DHT22;334;48.808;9.222;2023-01-01T05:49:36;13.60;1.00
702;DHT22;334;48.808;9.222;2023-01-01T05:50:38;13.60;1.00
702;DHT22;334;48.808;9.222;2023-01-01T05:51:40;13.60;1.00
702;DHT22;334;48.808;9.222;2023-01-01T05:52:40;13.60;1.00
702;DHT22;334;48.808;9.222;2023-01-01T05:53:43;13.60;1.00
702;DHT22;334;48.808;9.222;2023-01-01T05:54:47;13.60;1.00
702;DHT22;334;48.808;9.222;2023-01-01T05:55:52;13.60;1.00
702;DHT22;334;48.808;9.222;2023-01-01T05:56:54;13.60;1.00
702;DHT22;334;48.808;9.222;2023-01-01T05:57:56;13.60;1.00
702;DHT22;334;48.808;9.222;2023-01-01T05:58:58;13.40;1.00
702;DHT22;334;48.808;9.222;2023-01-01T06:00:00;13.60;1.00
702;DHT22;334;48.808;9.222;2023-01-01T06:01:25;13.70;1.00
702;DHT22;334;48.808;9.222;2023-01-01T06:02:29;13.70;1.00
702;DHT22;334;48.808;9.222;2023-01-01T06:03:31;13.70;1.00
702;DHT22;334;48.808;9.222;2023-01-01T06:04:33;13.80;1.00
702;DHT22;334;48.808;9.222;2023-01-01T06:05:35;13.80;1.00
702;DHT22;334;48.808;9.222;2023-01-01T06:06:39;13.80;1.00
702;DHT22;334;48.808;9.222;2023-01-01T06:07:41;13.80;1.00
702;DHT22;334;48.808;9.222;2023-01-01T06:09:00;13.80;1.00
702;DHT22;334;48.808;9.222;2023-01-01T06:10:03;13.90;1.00
702;DHT22;334;48.808;9.222;2023-01-01T06:11:07;13.90;1.00
702;DHT22;334;48.808;9.222;2023-01-01T06:12:09;13.90;1.00
702;DHT22;334;48.808;9.222;2023-01-01T06:13:11;14.00;1.00
702;DHT22;334;48.808;9.222;2023-01-01T06:14:14;14.10;1.00
702;DHT22;334;48.808;9.222;2023-01-01T06:15:16;14.10;1.00
702;DHT22;334;48.808;9.222;2023-01-01T06:16:17;14.10;1.00
702;DHT22;334;48.808;9.222;2023-01-01T06:17:19;14.20;1.00
702;DHT22;334;48.808;9.222;2023-01-01T06:18:22;14.20;1.00
702;DHT22;334;48.808;9.222;2023-01-01T06:19:24;14.20;1.00
702;DHT22;334;48.808;9.222;2023-01-01T06:20:25;14.20;1.00
702;DHT22;334;48.808;9.222;2023-01-01T06:21:28;14.30;1.00
702;DHT22;334;48.808;9.222;2023-01-01T06:22:30;14.40;1.00
702;DHT22;334;48.808;9.222;2023-01-01T06:23:32;14.40;1.00
702;DHT22;334;48.808;9.222;2023-01-01T06:24:33;14.40;1.00
702;DHT22;334;48.808;9.222;2023-01-01T06:25:39;14.50;1.00
702;DHT22;334;48.808;9.222;2023-01-01T06:26:41;14.50;1.00
702;DHT22;334;48.808;9.222;2023-01-01T06:27:43;14.50;1.00
702;DHT22;334;48.808;9.222;2023-01-01T06:28:45;14.50;1.00
702;DHT22;334;48.808;9.222;2023-01-01T06:29:47;14.50;1.00
702;DHT22;334;48.808;9.222;2023-01-01T06:30:49;14.50;1.00
702;DHT22;334;48.808;9.222;2023-01-01T06:31:51;14.60;1.00
702;DHT22;334;48.808;9.222;2023-01-01T06:32:53;14.50;1.00
702;DHT22;334;48.808;9.222;2023-01-01T06:33:55;14.60;1.00
702;DHT22;334;48.808;9.222;2023-01-01T06:34:57;14.60;1.00
702;DHT22;334;48.808;9.222;2023-01-01T06:36:01;14.60;1.00
702;DHT22;334;48.808;9.222;2023-01-01T06:37:03;14.60;1.00
702;DHT22;334;48.808;9.222;2023-01-01T06:38:07;14.60;1.00
702;DHT22;334;48.808;9.222;2023-01-01T06:39:09;14.60;1.00
702;DHT22;334;48.808;9.222;2023-01-01T06:40:11;14.70;1.00
702;DHT22;334;48.808;9.222;2023-01-01T06:41:15;14.70;1.00
702;DHT22;334;48.808;9.222;2023-01-01T06:42:17;14.70;1.00
702;DHT22;334;48.808;9.222;2023-01-01T06:43:19;14.70;1.00
702;DHT22;334;48.808;9.222;2023-01-01T06:44:21;14.70;1.00
702;DHT22;334;48.808;9.222;2023-01-01T06:45:23;14.70;1.00
702;DHT22;334;48.808;9.222;2023-01-01T06:46:31;14.70;1.00
702;DHT22;334;48.808;9.222;2023-01-01T06:47:34;14.70;1.00
702;DHT22;334;48.808;9.222;2023-01-01T06:48:36;14.70;1.00
702;DHT22;334;48.808;9.222;2023-01-01T06:49:37;14.70;1.00
702;DHT22;334;48.808;9.222;2023-01-01T06:50:39;14.70;1.00
702;DHT22;334;48.808;9.222;2023-01-01T06:51:42;14.60;1.00
702;DHT22;334;48.808;9.222;2023-01-01T06:52:46;14.60;1.00
702;DHT22;334;48.808;9.222;2023-01-01T06:53:49;14.60;1.00
702;DHT22;334;48.808;9.222;2023-01-01T06:54:51;14.60;1.00
702;DHT22;334;48.808;9.222;2023-01-01T06:55:53;14.60;1.00
702;DHT22;334;48.808;9.222;2023-01-01T06:56:58;14.50;1.00
702;DHT22;334;48.808;9.222;2023-01-01T06:57:59;14.50;1.00
702;DHT22;334;48.808;9.222;2023-01-01T06:59:02;14.50;1.00
702;DHT22;334;48.808;9.222;2023-01-01T07:00:04;14.50;1.00
702;DHT22;334;48.808;9.222;2023-01-01T07:01:17;14.50;1.00
702;DHT22;334;48.808;9.222;2023-01-01T07:02:19;14.50;1.00
702;DHT22;334;48.808;9.222;2023-01-01T07:03:21;14.70;1.00
702;DHT22;334;48.808;9.222;2023-01-01T07:04:23;14.50;1.00
702;DHT22;334;48.808;9.222;2023-01-01T07:05:25;14.50;1.00
702;DHT22;334;48.808;9.222;2023-01-01T07:06:28;14.50;1.00
702;DHT22;334;48.808;9.222;2023-01-01T07:07:30;14.50;1.00
702;DHT22;334;48.808;9.222;2023-01-01T07:08:36;14.50;1.00
702;DHT22;334;48.808;9.222;2023-01-01T07:09:38;14.50;1.00
702;DHT22;334;48.808;9.222;2023-01-01T07:10:40;14.50;1.00
702;DHT22;334;48.808;9.222;2023-01-01T07:11:42;14.50;1.00
702;DHT22;334;48.808;9.222;2023-01-01T07:12:43;14.50;1.00
702;DHT22;334;48.808;9.222;2023-01-01T07:13:45;14.50;1.00
702;DHT22;334;48.808;9.222;2023-01-01T07:14:47;14.50;1.00
702;DHT22;334;48.808;9.222;2023-01-01T07:15:49;14.40;1.00
702;DHT22;334;48.808;9.222;2023-01-01T07:16:50;14.40;1.00
702;DHT22;334;48.808;9.222;2023-01-01T07:17:52;14.40;1.00
702;DHT22;334;48.808;9.222;2023-01-01T07:18:54;14.40;1.00
702;DHT22;334;48.808;9.222;2023-01-01T07:20:00;14.40;1.00
702;DHT22;334;48.808;9.222;2023-01-01T07:21:03;14.30;1.00
702;DHT22;334;48.808;9.222;2023-01-01T07:22:09;14.30;1.00
702;DHT22;334;48.808;9.222;2023-01-01T07:23:11;14.20;1.00
702;DHT22;334;48.808;9.222;2023-01-01T07:24:14;14.30;1.00
702;DHT22;334;48.808;9.222;2023-01-01T07:25:16;14.30;1.00
702;DHT22;334;48.808;9.222;2023-01-01T07:26:18;14.30;1.00
702;DHT22;334;48.808;9.222;2023-01-01T07:27:19;14.30;1.00
702;DHT22;334;48.808;9.222;2023-01-01T07:28:22;14.20;1.00
702;DHT22;334;48.808;9.222;2023-01-01T07:29:24;14.30;1.00
702;DHT22;334;48.808;9.222;2023-01-01T07:30:26;14.30;1.00
702;DHT22;334;48.808;9.222;2023-01-01T07:31:28;14.30;1.00
702;DHT22;334;48.808;9.222;2023-01-01T07:32:30;14.30;1.00
702;DHT22;334;48.808;9.222;2023-01-01T07:33:31;14.40;1.00
702;DHT22;334;48.808;9.222;2023-01-01T07:34:33;14.40;1.00
702;DHT22;334;48.808;9.222;2023-01-01T07:35:35;14.40;1.00
702;DHT22;334;48.808;9.222;2023-01-01T07:36:37;14.40;1.00
702;DHT22;334;48.808;9.222;2023-01-01T07:37:38;14.40;1.00
702;DHT22;334;48.808;9.222;2023-01-01T07:38:40;14.40;1.00
702;DHT22;334;48.808;9.222;2023-01-01T07:39:42;14.50;1.00
702;DHT22;334;48.808;9.222;2023-01-01T07:40:43;14.50;1.00
702;DHT22;334;48.808;9.222;2023-01-01T07:41:45;14.50;1.00
702;DHT22;334;48.808;9.222;2023-01-01T07:42:47;14.50;1.00
702;DHT22;334;48.808;9.222;2023-01-01T07:43:49;14.50;1.00
702;DHT22;334;48.808;9.222;2023-01-01T07:44:51;14.50;1.00
702;DHT22;334;48.808;9.222;2023-01-01T07:45:52;14.50;1.00